sensor_id;sensor_type;location;lat;lon;timestamp;P1;durP1;ratioP1;P2;durP2;ratioP2
64653;SDS011;51065;48.884;12.598;2022-11-12T00:00:00;18.38;;;5.32;;
64653;SDS011;51065;48.884;12.598;2022-11-12T00:02:25;23.50;;;6.40;;
64653;SDS011;51065;48.884;12.598;2022-11-12T00:04:51;16.67;;;4.82;;
64653;SDS011;51065;48.884;12.598;2022-11-12T00:07:16;30.60;;;6.18;;
64653;SDS011;51065;48.884;12.598;2022-11-12T00:09:42;25.27;;;6.70;;
64653;SDS011;51065;48.884;12.598;2022-11-12T00:12:08;31.73;;;5.72;;
64653;SDS011;51065;48.884;12.598;2022-11-12T00:14:33;28.92;;;5.45;;
64653;SDS011;51065;48.884;12.598;2022-11-12T00:16:59;23.80;;;5.13;;
64653;SDS011;51065;48.884;12.598;2022-11-12T00:19:24;20.27;;;5.43;;
64653;SDS011;51065;48.884;12.598;2022-11-12T00:21:50;18.02;;;5.95;;
64653;SDS011;51065;48.884;12.598;2022-11-12T00:24:15;14.75;;;5.15;;
64653;SDS011;51065;48.884;12.598;2022-11-12T00:26:41;12.52;;;4.38;;
64653;SDS011;51065;48.884;12.598;2022-11-12T00:29:06;15.85;;;4.63;;
64653;SDS011;51065;48.884;12.598;2022-11-12T00:31:32;12.40;;;4.47;;
64653;SDS011;51065;48.884;12.598;2022-11-12T00:33:58;38.25;;;5.95;;
64653;SDS011;51065;48.884;12.598;2022-11-12T00:36:24;10.13;;;4.30;;
64653;SDS011;51065;48.884;12.598;2022-11-12T00:38:49;22.52;;;6.10;;
64653;SDS011;51065;48.884;12.598;2022-11-12T00:41:15;40.95;;;6.03;;
64653;SDS011;51065;48.884;12.598;2022-11-12T00:43:41;18.30;;;6.30;;
64653;SDS011;51065;48.884;12.598;2022-11-12T00:46:06;14.52;;;5.15;;
64653;SDS011;51065;48.884;12.598;2022-11-12T00:48:32;25.08;;;5.40;;
64653;SDS011;51065;48.884;12.598;2022-11-12T00:50:58;20.48;;;4.82;;
64653;SDS011;51065;48.884;12.598;2022-11-12T00:53:25;28.00;;;5.72;;
64653;SDS011;51065;48.884;12.598;2022-11-12T00:55:50;23.35;;;5.70;;
64653;SDS011;51065;48.884;12.598;2022-11-12T00:58:16;12.50;;;4.57;;
64653;SDS011;51065;48.884;12.598;2022-11-12T01:00:41;11.57;;;4.68;;
64653;SDS011;51065;48.884;12.598;2022-11-12T01:03:07;14.13;;;5.07;;
64653;SDS011;51065;48.884;12.598;2022-11-12T01:05:33;21.13;;;5.03;;
64653;SDS011;51065;48.884;12.598;2022-11-12T01:07:58;10.48;;;4.28;;
64653;SDS011;51065;48.884;12.598;2022-11-12T01:10:24;12.32;;;4.55;;
64653;SDS011;51065;48.884;12.598;2022-11-12T01:12:50;11.07;;;4.13;;
64653;SDS011;51065;48.884;12.598;2022-11-12T01:15:15;11.98;;;4.47;;
64653;SDS011;51065;48.884;12.598;2022-11-12T01:17:41;22.42;;;5.43;;
64653;SDS011;51065;48.884;12.598;2022-11-12T01:20:07;16.45;;;4.63;;
64653;SDS011;51065;48.884;12.598;2022-11-12T01:22:32;18.73;;;5.80;;
64653;SDS011;51065;48.884;12.598;2022-11-12T01:24:58;12.35;;;4.13;;
64653;SDS011;51065;48.884;12.598;2022-11-12T01:27:23;15.00;;;4.60;;
64653;SDS011;51065;48.884;12.598;2022-11-12T01:29:49;18.55;;;5.05;;
64653;SDS011;51065;48.884;12.598;2022-11-12T01:32:15;11.93;;;4.25;;
64653;SDS011;51065;48.884;12.598;2022-11-12T01:34:40;16.60;;;5.05;;
64653;SDS011;51065;48.884;12.598;2022-11-12T01:37:06;19.15;;;5.63;;
64653;SDS011;51065;48.884;12.598;2022-11-12T01:39:31;26.20;;;4.72;;
64653;SDS011;51065;48.884;12.598;2022-11-12T01:41:57;11.00;;;4.00;;
64653;SDS011;51065;48.884;12.598;2022-11-12T01:44:23;12.43;;;4.88;;
64653;SDS011;51065;48.884;12.598;2022-11-12T01:52:16;21.23;;;6.50;;
64653;SDS011;51065;48.884;12.598;2022-11-12T01:54:48;20.83;;;4.50;;
64653;SDS011;51065;48.884;12.598;2022-11-12T01:57:19;11.50;;;4.32;;
64653;SDS011;51065;48.884;12.598;2022-11-12T01:59:52;26.08;;;6.13;;
64653;SDS011;51065;48.884;12.598;2022-11-12T02:02:24;19.55;;;4.30;;
64653;SDS011;51065;48.884;12.598;2022-11-12T02:04:50;8.45;;;3.72;;
64653;SDS011;51065;48.884;12.598;2022-11-12T02:07:16;19.85;;;4.00;;
64653;SDS011;51065;48.884;12.598;2022-11-12T02:09:42;13.75;;;3.92;;
64653;SDS011;51065;48.884;12.598;2022-11-12T02:12:08;23.15;;;4.75;;
64653;SDS011;51065;48.884;12.598;2022-11-12T02:14:54;8.63;;;3.42;;
64653;SDS011;51065;48.884;12.598;2022-11-12T02:17:19;8.30;;;4.15;;
64653;SDS011;51065;48.884;12.598;2022-11-12T02:19:45;13.93;;;4.28;;
64653;SDS011;51065;48.884;12.598;2022-11-12T02:22:11;31.77;;;6.20;;
64653;SDS011;51065;48.884;12.598;2022-11-12T02:24:36;31.02;;;6.07;;
64653;SDS011;51065;48.884;12.598;2022-11-12T02:27:02;27.70;;;7.18;;
64653;SDS011;51065;48.884;12.598;2022-11-12T02:29:30;13.00;;;4.40;;
64653;SDS011;51065;48.884;12.598;2022-11-12T02:31:56;10.68;;;3.78;;
64653;SDS011;51065;48.884;12.598;2022-11-12T02:34:21;17.73;;;4.30;;
64653;SDS011;51065;48.884;12.598;2022-11-12T02:36:47;16.00;;;4.22;;
64653;SDS011;51065;48.884;12.598;2022-11-12T02:39:12;25.05;;;5.05;;
64653;SDS011;51065;48.884;12.598;2022-11-12T02:41:38;5.05;;;2.63;;
64653;SDS011;51065;48.884;12.598;2022-11-12T02:44:04;16.42;;;4.85;;
64653;SDS011;51065;48.884;12.598;2022-11-12T02:46:29;12.00;;;3.40;;
64653;SDS011;51065;48.884;12.598;2022-11-12T02:48:55;34.47;;;6.15;;
64653;SDS011;51065;48.884;12.598;2022-11-12T02:51:20;8.80;;;3.63;;
64653;SDS011;51065;48.884;12.598;2022-11-12T02:53:46;7.85;;;3.55;;
64653;SDS011;51065;48.884;12.598;2022-11-12T02:56:11;11.27;;;4.10;;
64653;SDS011;51065;48.884;12.598;2022-11-12T02:58:37;10.10;;;4.07;;
64653;SDS011;51065;48.884;12.598;2022-11-12T03:01:02;40.05;;;5.65;;
64653;SDS011;51065;48.884;12.598;2022-11-12T03:03:28;9.55;;;3.35;;
64653;SDS011;51065;48.884;12.598;2022-11-12T03:05:58;46.05;;;8.20;;
64653;SDS011;51065;48.884;12.598;2022-11-12T03:08:25;8.25;;;3.30;;
64653;SDS011;51065;48.884;12.598;2022-11-12T03:10:51;26.60;;;4.70;;
64653;SDS011;51065;48.884;12.598;2022-11-12T03:13:17;8.43;;;3.58;;
64653;SDS011;51065;48.884;12.598;2022-11-12T03:15:43;39.17;;;6.68;;
64653;SDS011;51065;48.884;12.598;2022-11-12T03:18:09;18.65;;;4.43;;
64653;SDS011;51065;48.884;12.598;2022-11-12T03:20:34;12.45;;;4.63;;
64653;SDS011;51065;48.884;12.598;2022-11-12T03:23:01;8.88;;;4.15;;
64653;SDS011;51065;48.884;12.598;2022-11-12T03:25:31;18.50;;;4.65;;
64653;SDS011;51065;48.884;12.598;2022-11-12T03:27:57;25.27;;;5.43;;
64653;SDS011;51065;48.884;12.598;2022-11-12T03:30:32;10.10;;;3.70;;
64653;SDS011;51065;48.884;12.598;2022-11-12T03:32:59;8.32;;;3.25;;
64653;SDS011;51065;48.884;12.598;2022-11-12T03:35:25;11.43;;;3.80;;
64653;SDS011;51065;48.884;12.598;2022-11-12T03:37:51;11.18;;;4.05;;
64653;SDS011;51065;48.884;12.598;2022-11-12T03:40:17;19.38;;;4.68;;
64653;SDS011;51065;48.884;12.598;2022-11-12T03:42:44;58.28;;;6.63;;
64653;SDS011;51065;48.884;12.598;2022-11-12T03:45:13;21.98;;;4.47;;
64653;SDS011;51065;48.884;12.598;2022-11-12T03:47:43;11.60;;;4.00;;
64653;SDS011;51065;48.884;12.598;2022-11-12T03:50:11;9.95;;;4.43;;
64653;SDS011;51065;48.884;12.598;2022-11-12T03:52:38;35.95;;;5.13;;
64653;SDS011;51065;48.884;12.598;2022-11-12T03:55:08;30.63;;;5.25;;
64653;SDS011;51065;48.884;12.598;2022-11-12T03:57:33;8.13;;;3.75;;
64653;SDS011;51065;48.884;12.598;2022-11-12T03:59:59;18.70;;;4.63;;
64653;SDS011;51065;48.884;12.598;2022-11-12T04:02:25;28.38;;;5.60;;
64653;SDS011;51065;48.884;12.598;2022-11-12T04:04:53;23.13;;;4.05;;
64653;SDS011;51065;48.884;12.598;2022-11-12T04:07:38;5.60;;;2.92;;
64653;SDS011;51065;48.884;12.598;2022-11-12T04:10:22;11.75;;;4.38;;
64653;SDS011;51065;48.884;12.598;2022-11-12T04:12:48;8.77;;;3.80;;
64653;SDS011;51065;48.884;12.598;2022-11-12T04:15:32;34.08;;;5.47;;
64653;SDS011;51065;48.884;12.598;2022-11-12T04:17:58;24.23;;;4.32;;
64653;SDS011;51065;48.884;12.598;2022-11-12T04:20:42;18.90;;;4.20;;
64653;SDS011;51065;48.884;12.598;2022-11-12T04:23:31;10.25;;;3.78;;
64653;SDS011;51065;48.884;12.598;2022-11-12T04:25:56;17.65;;;4.28;;
64653;SDS011;51065;48.884;12.598;2022-11-12T04:28:57;22.55;;;3.92;;
64653;SDS011;51065;48.884;12.598;2022-11-12T04:31:41;13.48;;;4.53;;
64653;SDS011;51065;48.884;12.598;2022-11-12T04:34:07;9.38;;;3.33;;
64653;SDS011;51065;48.884;12.598;2022-11-12T04:36:51;15.55;;;3.47;;
64653;SDS011;51065;48.884;12.598;2022-11-12T04:39:16;18.48;;;4.80;;
64653;SDS011;51065;48.884;12.598;2022-11-12T04:41:42;8.38;;;3.78;;
64653;SDS011;51065;48.884;12.598;2022-11-12T04:44:26;6.65;;;3.45;;
64653;SDS011;51065;48.884;12.598;2022-11-12T04:47:10;8.32;;;3.38;;
64653;SDS011;51065;48.884;12.598;2022-11-12T04:49:36;17.02;;;3.90;;
64653;SDS011;51065;48.884;12.598;2022-11-12T04:52:01;18.40;;;4.30;;
64653;SDS011;51065;48.884;12.598;2022-11-12T04:54:30;6.28;;;3.45;;
64653;SDS011;51065;48.884;12.598;2022-11-12T04:56:56;22.70;;;4.63;;
64653;SDS011;51065;48.884;12.598;2022-11-12T04:59:22;15.10;;;4.00;;
64653;SDS011;51065;48.884;12.598;2022-11-12T05:01:47;12.23;;;3.28;;
64653;SDS011;51065;48.884;12.598;2022-11-12T05:04:13;22.08;;;5.40;;
64653;SDS011;51065;48.884;12.598;2022-11-12T05:06:38;26.20;;;4.40;;
64653;SDS011;51065;48.884;12.598;2022-11-12T05:09:17;11.57;;;3.38;;
64653;SDS011;51065;48.884;12.598;2022-11-12T05:11:44;14.23;;;4.20;;
64653;SDS011;51065;48.884;12.598;2022-11-12T05:14:10;13.30;;;3.65;;
64653;SDS011;51065;48.884;12.598;2022-11-12T05:16:35;16.42;;;4.38;;
64653;SDS011;51065;48.884;12.598;2022-11-12T05:19:01;53.47;;;4.57;;
64653;SDS011;51065;48.884;12.598;2022-11-12T05:21:27;32.63;;;4.93;;
64653;SDS011;51065;48.884;12.598;2022-11-12T05:24:12;33.28;;;6.40;;
64653;SDS011;51065;48.884;12.598;2022-11-12T05:26:37;22.30;;;3.55;;
64653;SDS011;51065;48.884;12.598;2022-11-12T05:29:03;29.15;;;4.90;;
64653;SDS011;51065;48.884;12.598;2022-11-12T05:31:30;10.27;;;3.10;;
64653;SDS011;51065;48.884;12.598;2022-11-12T05:33:56;16.42;;;3.08;;
64653;SDS011;51065;48.884;12.598;2022-11-12T05:36:22;43.70;;;6.18;;
64653;SDS011;51065;48.884;12.598;2022-11-12T05:38:47;20.13;;;3.45;;
64653;SDS011;51065;48.884;12.598;2022-11-12T05:41:13;43.08;;;6.05;;
64653;SDS011;51065;48.884;12.598;2022-11-12T05:43:38;40.83;;;6.15;;
64653;SDS011;51065;48.884;12.598;2022-11-12T05:46:04;15.15;;;3.08;;
64653;SDS011;51065;48.884;12.598;2022-11-12T05:48:30;44.60;;;5.07;;
64653;SDS011;51065;48.884;12.598;2022-11-12T05:50:55;26.90;;;3.47;;
64653;SDS011;51065;48.884;12.598;2022-11-12T05:53:21;18.80;;;3.42;;
64653;SDS011;51065;48.884;12.598;2022-11-12T05:55:47;27.90;;;3.45;;
64653;SDS011;51065;48.884;12.598;2022-11-12T05:58:12;36.58;;;5.78;;
64653;SDS011;51065;48.884;12.598;2022-11-12T06:00:38;26.27;;;4.38;;
64653;SDS011;51065;48.884;12.598;2022-11-12T06:03:04;10.10;;;2.15;;
64653;SDS011;51065;48.884;12.598;2022-11-12T06:05:31;15.65;;;3.25;;
64653;SDS011;51065;48.884;12.598;2022-11-12T06:07:57;8.40;;;2.70;;
64653;SDS011;51065;48.884;12.598;2022-11-12T06:10:22;28.45;;;3.90;;
64653;SDS011;51065;48.884;12.598;2022-11-12T06:12:48;26.85;;;2.90;;
64653;SDS011;51065;48.884;12.598;2022-11-12T06:15:14;9.80;;;2.45;;
64653;SDS011;51065;48.884;12.598;2022-11-12T06:17:40;19.55;;;3.08;;
64653;SDS011;51065;48.884;12.598;2022-11-12T06:20:06;15.70;;;3.25;;
64653;SDS011;51065;48.884;12.598;2022-11-12T06:22:32;8.48;;;2.53;;
64653;SDS011;51065;48.884;12.598;2022-11-12T06:24:58;15.85;;;3.00;;
64653;SDS011;51065;48.884;12.598;2022-11-12T06:27:23;29.58;;;3.65;;
64653;SDS011;51065;48.884;12.598;2022-11-12T06:29:49;10.07;;;2.58;;
64653;SDS011;51065;48.884;12.598;2022-11-12T06:32:15;17.38;;;2.85;;
64653;SDS011;51065;48.884;12.598;2022-11-12T06:34:41;14.63;;;2.58;;
64653;SDS011;51065;48.884;12.598;2022-11-12T06:37:06;40.03;;;3.35;;
64653;SDS011;51065;48.884;12.598;2022-11-12T06:39:32;3.95;;;2.10;;
64653;SDS011;51065;48.884;12.598;2022-11-12T06:41:57;17.73;;;4.60;;
64653;SDS011;51065;48.884;12.598;2022-11-12T06:44:23;7.32;;;2.40;;
64653;SDS011;51065;48.884;12.598;2022-11-12T06:46:49;22.52;;;5.22;;
64653;SDS011;51065;48.884;12.598;2022-11-12T06:49:14;18.05;;;3.50;;
64653;SDS011;51065;48.884;12.598;2022-11-12T06:51:40;13.50;;;3.67;;
64653;SDS011;51065;48.884;12.598;2022-11-12T06:54:05;17.33;;;3.42;;
64653;SDS011;51065;48.884;12.598;2022-11-12T06:56:31;20.42;;;3.50;;
64653;SDS011;51065;48.884;12.598;2022-11-12T06:58:57;18.48;;;4.32;;
64653;SDS011;51065;48.884;12.598;2022-11-12T07:01:23;9.38;;;2.67;;
64653;SDS011;51065;48.884;12.598;2022-11-12T07:03:50;5.32;;;2.25;;
64653;SDS011;51065;48.884;12.598;2022-11-12T07:06:16;21.02;;;3.05;;
64653;SDS011;51065;48.884;12.598;2022-11-12T07:08:44;24.83;;;4.78;;
64653;SDS011;51065;48.884;12.598;2022-11-12T07:11:11;11.45;;;3.30;;
64653;SDS011;51065;48.884;12.598;2022-11-12T07:13:37;6.28;;;2.40;;
64653;SDS011;51065;48.884;12.598;2022-11-12T07:16:03;13.73;;;2.83;;
64653;SDS011;51065;48.884;12.598;2022-11-12T07:18:31;39.25;;;6.20;;
64653;SDS011;51065;48.884;12.598;2022-11-12T07:20:58;7.28;;;2.63;;
64653;SDS011;51065;48.884;12.598;2022-11-12T07:23:28;6.85;;;3.03;;
64653;SDS011;51065;48.884;12.598;2022-11-12T07:25:57;7.05;;;2.60;;
64653;SDS011;51065;48.884;12.598;2022-11-12T07:28:24;6.90;;;2.17;;
64653;SDS011;51065;48.884;12.598;2022-11-12T07:30:53;60.60;;;4.60;;
64653;SDS011;51065;48.884;12.598;2022-11-12T07:33:23;7.40;;;2.17;;
64653;SDS011;51065;48.884;12.598;2022-11-12T07:35:55;9.63;;;2.60;;
64653;SDS011;51065;48.884;12.598;2022-11-12T07:38:41;16.70;;;3.63;;
64653;SDS011;51065;48.884;12.598;2022-11-12T07:41:14;9.02;;;3.05;;
64653;SDS011;51065;48.884;12.598;2022-11-12T07:43:42;6.05;;;2.28;;
64653;SDS011;51065;48.884;12.598;2022-11-12T07:46:10;55.38;;;5.35;;
64653;SDS011;51065;48.884;12.598;2022-11-12T07:48:37;3.95;;;1.92;;
64653;SDS011;51065;48.884;12.598;2022-11-12T07:51:08;10.10;;;2.65;;
64653;SDS011;51065;48.884;12.598;2022-11-12T07:53:39;11.43;;;2.53;;
64653;SDS011;51065;48.884;12.598;2022-11-12T07:56:05;18.08;;;2.95;;
64653;SDS011;51065;48.884;12.598;2022-11-12T07:58:31;14.13;;;3.17;;
64653;SDS011;51065;48.884;12.598;2022-11-12T08:01:05;10.05;;;2.50;;
64653;SDS011;51065;48.884;12.598;2022-11-12T08:03:35;8.02;;;2.83;;
64653;SDS011;51065;48.884;12.598;2022-11-12T08:06:01;8.90;;;2.60;;
64653;SDS011;51065;48.884;12.598;2022-11-12T08:08:27;16.92;;;2.92;;
64653;SDS011;51065;48.884;12.598;2022-11-12T08:10:56;11.57;;;3.13;;
64653;SDS011;51065;48.884;12.598;2022-11-12T08:13:22;10.95;;;3.25;;
64653;SDS011;51065;48.884;12.598;2022-11-12T08:15:48;9.15;;;3.20;;
64653;SDS011;51065;48.884;12.598;2022-11-12T08:18:14;31.77;;;5.32;;
64653;SDS011;51065;48.884;12.598;2022-11-12T08:20:40;21.98;;;3.08;;
64653;SDS011;51065;48.884;12.598;2022-11-12T08:23:05;21.98;;;4.05;;
64653;SDS011;51065;48.884;12.598;2022-11-12T08:25:31;14.00;;;3.22;;
64653;SDS011;51065;48.884;12.598;2022-11-12T08:27:57;20.08;;;3.92;;
64653;SDS011;51065;48.884;12.598;2022-11-12T08:30:24;25.10;;;4.57;;
64653;SDS011;51065;48.884;12.598;2022-11-12T08:32:54;14.18;;;3.35;;
64653;SDS011;51065;48.884;12.598;2022-11-12T08:35:27;6.95;;;2.55;;
64653;SDS011;51065;48.884;12.598;2022-11-12T08:37:58;17.20;;;3.63;;
64653;SDS011;51065;48.884;12.598;2022-11-12T08:40:25;12.45;;;3.80;;
64653;SDS011;51065;48.884;12.598;2022-11-12T08:42:56;30.85;;;4.03;;
64653;SDS011;51065;48.884;12.598;2022-11-12T08:45:25;14.57;;;3.60;;
64653;SDS011;51065;48.884;12.598;2022-11-12T08:47:52;17.40;;;4.40;;
64653;SDS011;51065;48.884;12.598;2022-11-12T08:50:22;38.05;;;4.70;;
64653;SDS011;51065;48.884;12.598;2022-11-12T08:52:47;33.70;;;6.93;;
64653;SDS011;51065;48.884;12.598;2022-11-12T08:55:13;25.02;;;4.72;;
64653;SDS011;51065;48.884;12.598;2022-11-12T08:57:39;17.73;;;4.05;;
64653;SDS011;51065;48.884;12.598;2022-11-12T09:00:07;9.98;;;3.80;;
64653;SDS011;51065;48.884;12.598;2022-11-12T09:02:34;21.92;;;3.88;;
64653;SDS011;51065;48.884;12.598;2022-11-12T09:04:59;12.20;;;4.07;;
64653;SDS011;51065;48.884;12.598;2022-11-12T09:07:25;14.35;;;3.83;;
64653;SDS011;51065;48.884;12.598;2022-11-12T09:09:50;16.45;;;4.30;;
64653;SDS011;51065;48.884;12.598;2022-11-12T09:12:16;12.70;;;4.30;;
64653;SDS011;51065;48.884;12.598;2022-11-12T09:14:43;19.52;;;5.60;;
64653;SDS011;51065;48.884;12.598;2022-11-12T09:17:10;9.05;;;3.88;;
64653;SDS011;51065;48.884;12.598;2022-11-12T09:19:36;14.40;;;4.45;;
64653;SDS011;51065;48.884;12.598;2022-11-12T09:22:01;19.08;;;4.80;;
64653;SDS011;51065;48.884;12.598;2022-11-12T09:24:27;17.15;;;4.88;;
64653;SDS011;51065;48.884;12.598;2022-11-12T09:26:53;16.10;;;4.93;;
64653;SDS011;51065;48.884;12.598;2022-11-12T09:29:19;14.68;;;4.20;;
64653;SDS011;51065;48.884;12.598;2022-11-12T09:31:44;23.13;;;5.60;;
64653;SDS011;51065;48.884;12.598;2022-11-12T09:34:10;34.03;;;5.90;;
64653;SDS011;51065;48.884;12.598;2022-11-12T09:36:36;21.83;;;5.60;;
64653;SDS011;51065;48.884;12.598;2022-11-12T09:39:02;13.90;;;4.00;;
64653;SDS011;51065;48.884;12.598;2022-11-12T09:41:38;17.52;;;4.32;;
64653;SDS011;51065;48.884;12.598;2022-11-12T09:44:16;12.27;;;3.78;;
64653;SDS011;51065;48.884;12.598;2022-11-12T09:46:45;14.23;;;4.25;;
64653;SDS011;51065;48.884;12.598;2022-11-12T09:49:24;21.17;;;5.28;;
64653;SDS011;51065;48.884;12.598;2022-11-12T09:52:17;19.70;;;5.15;;
64653;SDS011;51065;48.884;12.598;2022-11-12T09:54:44;21.52;;;6.28;;
64653;SDS011;51065;48.884;12.598;2022-11-12T09:57:14;36.03;;;7.20;;
64653;SDS011;51065;48.884;12.598;2022-11-12T09:59:40;17.45;;;6.68;;
64653;SDS011;51065;48.884;12.598;2022-11-12T10:10:15;18.23;;;5.25;;
64653;SDS011;51065;48.884;12.598;2022-11-12T10:12:53;13.80;;;5.50;;
64653;SDS011;51065;48.884;12.598;2022-11-12T10:15:42;21.42;;;7.70;;
64653;SDS011;51065;48.884;12.598;2022-11-12T10:19:10;18.20;;;6.18;;
64653;SDS011;51065;48.884;12.598;2022-11-12T10:21:40;15.73;;;5.38;;
64653;SDS011;51065;48.884;12.598;2022-11-12T10:24:32;12.43;;;5.30;;
64653;SDS011;51065;48.884;12.598;2022-11-12T10:26:59;14.57;;;5.40;;
64653;SDS011;51065;48.884;12.598;2022-11-12T10:29:38;26.52;;;6.25;;
64653;SDS011;51065;48.884;12.598;2022-11-12T10:32:27;14.52;;;5.85;;
64653;SDS011;51065;48.884;12.598;2022-11-12T10:34:52;16.55;;;5.97;;
64653;SDS011;51065;48.884;12.598;2022-11-12T10:37:22;15.73;;;6.22;;
64653;SDS011;51065;48.884;12.598;2022-11-12T10:40:00;38.28;;;8.13;;
64653;SDS011;51065;48.884;12.598;2022-11-12T10:42:56;15.98;;;5.40;;
64653;SDS011;51065;48.884;12.598;2022-11-12T10:45:28;12.82;;;5.47;;
64653;SDS011;51065;48.884;12.598;2022-11-12T10:47:54;14.45;;;5.45;;
64653;SDS011;51065;48.884;12.598;2022-11-12T10:50:41;14.07;;;5.35;;
64653;SDS011;51065;48.884;12.598;2022-11-12T10:53:09;14.00;;;5.53;;
64653;SDS011;51065;48.884;12.598;2022-11-12T10:55:37;14.88;;;6.10;;
64653;SDS011;51065;48.884;12.598;2022-11-12T10:58:25;14.20;;;5.03;;
64653;SDS011;51065;48.884;12.598;2022-11-12T11:00:53;13.80;;;5.60;;
64653;SDS011;51065;48.884;12.598;2022-11-12T11:03:50;23.05;;;6.65;;
64653;SDS011;51065;48.884;12.598;2022-11-12T11:06:21;20.27;;;7.90;;
64653;SDS011;51065;48.884;12.598;2022-11-12T11:08:50;21.00;;;6.15;;
64653;SDS011;51065;48.884;12.598;2022-11-12T11:11:28;21.73;;;7.13;;
64653;SDS011;51065;48.884;12.598;2022-11-12T11:13:55;15.95;;;5.63;;
64653;SDS011;51065;48.884;12.598;2022-11-12T11:16:48;14.48;;;5.03;;
64653;SDS011;51065;48.884;12.598;2022-11-12T11:19:19;16.95;;;5.60;;
64653;SDS011;51065;48.884;12.598;2022-11-12T11:56:50;22.33;;;6.95;;
64653;SDS011;51065;48.884;12.598;2022-11-12T11:59:24;16.98;;;8.65;;
64653;SDS011;51065;48.884;12.598;2022-11-12T12:02:02;16.63;;;5.63;;
64653;SDS011;51065;48.884;12.598;2022-11-12T12:04:41;17.55;;;6.18;;
64653;SDS011;51065;48.884;12.598;2022-11-12T12:07:19;16.65;;;6.85;;
64653;SDS011;51065;48.884;12.598;2022-11-12T12:10:20;12.65;;;4.65;;
64653;SDS011;51065;48.884;12.598;2022-11-12T12:21:00;16.17;;;4.65;;
64653;SDS011;51065;48.884;12.598;2022-11-12T12:23:44;14.73;;;5.22;;
64653;SDS011;51065;48.884;12.598;2022-11-12T12:26:44;16.08;;;5.22;;
64653;SDS011;51065;48.884;12.598;2022-11-12T12:31:46;16.83;;;5.95;;
64653;SDS011;51065;48.884;12.598;2022-11-12T12:37:01;23.40;;;6.35;;
64653;SDS011;51065;48.884;12.598;2022-11-12T12:39:45;11.93;;;4.50;;
64653;SDS011;51065;48.884;12.598;2022-11-12T12:42:35;18.10;;;6.07;;
64653;SDS011;51065;48.884;12.598;2022-11-12T12:47:58;19.13;;;6.22;;
64653;SDS011;51065;48.884;12.598;2022-11-12T12:50:28;17.38;;;7.35;;
64653;SDS011;51065;48.884;12.598;2022-11-12T13:03:52;15.23;;;5.40;;
64653;SDS011;51065;48.884;12.598;2022-11-12T13:17:45;15.60;;;5.40;;
64653;SDS011;51065;48.884;12.598;2022-11-12T13:37:42;15.02;;;5.97;;
64653;SDS011;51065;48.884;12.598;2022-11-12T13:40:12;21.10;;;7.20;;
64653;SDS011;51065;48.884;12.598;2022-11-12T13:42:40;27.25;;;7.13;;
64653;SDS011;51065;48.884;12.598;2022-11-12T13:45:15;21.98;;;8.32;;
64653;SDS011;51065;48.884;12.598;2022-11-12T13:47:42;40.55;;;10.82;;
64653;SDS011;51065;48.884;12.598;2022-11-12T13:50:12;16.48;;;6.75;;
64653;SDS011;51065;48.884;12.598;2022-11-12T13:52:41;17.40;;;6.80;;
64653;SDS011;51065;48.884;12.598;2022-11-12T13:55:20;30.92;;;11.80;;
64653;SDS011;51065;48.884;12.598;2022-11-12T13:57:48;14.55;;;6.68;;
64653;SDS011;51065;48.884;12.598;2022-11-12T14:03:04;19.95;;;7.13;;
64653;SDS011;51065;48.884;12.598;2022-11-12T14:05:31;19.70;;;6.97;;
64653;SDS011;51065;48.884;12.598;2022-11-12T14:08:15;16.23;;;7.05;;
64653;SDS011;51065;48.884;12.598;2022-11-12T14:22:39;24.48;;;6.88;;
64653;SDS011;51065;48.884;12.598;2022-11-12T14:25:10;27.15;;;8.00;;
64653;SDS011;51065;48.884;12.598;2022-11-12T14:27:40;16.77;;;6.80;;
64653;SDS011;51065;48.884;12.598;2022-11-12T14:32:43;30.20;;;7.50;;
64653;SDS011;51065;48.884;12.598;2022-11-12T14:43:22;25.33;;;7.80;;
64653;SDS011;51065;48.884;12.598;2022-11-12T14:46:17;14.57;;;5.82;;
64653;SDS011;51065;48.884;12.598;2022-11-12T14:48:47;22.35;;;6.60;;
64653;SDS011;51065;48.884;12.598;2022-11-12T14:51:20;33.10;;;6.22;;
64653;SDS011;51065;48.884;12.598;2022-11-12T14:53:54;29.67;;;7.72;;
64653;SDS011;51065;48.884;12.598;2022-11-12T14:56:45;40.85;;;8.38;;
64653;SDS011;51065;48.884;12.598;2022-11-12T14:59:12;28.42;;;7.35;;
64653;SDS011;51065;48.884;12.598;2022-11-12T15:01:39;28.10;;;7.03;;
64653;SDS011;51065;48.884;12.598;2022-11-12T15:04:25;51.03;;;10.40;;
64653;SDS011;51065;48.884;12.598;2022-11-12T15:06:59;44.72;;;9.63;;
64653;SDS011;51065;48.884;12.598;2022-11-12T15:09:35;23.15;;;7.07;;
64653;SDS011;51065;48.884;12.598;2022-11-12T15:12:03;36.22;;;8.25;;
64653;SDS011;51065;48.884;12.598;2022-11-12T15:14:32;23.37;;;6.97;;
64653;SDS011;51065;48.884;12.598;2022-11-12T15:16:58;18.00;;;6.53;;
64653;SDS011;51065;48.884;12.598;2022-11-12T15:19:27;16.63;;;6.75;;
64653;SDS011;51065;48.884;12.598;2022-11-12T15:21:57;24.50;;;7.53;;
64653;SDS011;51065;48.884;12.598;2022-11-12T15:26:56;43.40;;;6.67;;
64653;SDS011;51065;48.884;12.598;2022-11-12T15:29:30;15.88;;;6.82;;
64653;SDS011;51065;48.884;12.598;2022-11-12T15:32:42;15.18;;;6.00;;
64653;SDS011;51065;48.884;12.598;2022-11-12T15:34:49;16.92;;;6.75;;
64653;SDS011;51065;48.884;12.598;2022-11-12T15:39:42;28.80;;;7.78;;
64653;SDS011;51065;48.884;12.598;2022-11-12T15:45:09;20.77;;;7.60;;
64653;SDS011;51065;48.884;12.598;2022-11-12T15:47:39;32.80;;;10.00;;
64653;SDS011;51065;48.884;12.598;2022-11-12T15:50:10;20.15;;;8.68;;
64653;SDS011;51065;48.884;12.598;2022-11-12T15:52:46;21.80;;;8.35;;
64653;SDS011;51065;48.884;12.598;2022-11-12T15:55:13;28.98;;;12.13;;
64653;SDS011;51065;48.884;12.598;2022-11-12T15:57:44;19.20;;;8.70;;
64653;SDS011;51065;48.884;12.598;2022-11-12T16:00:18;21.75;;;10.10;;
64653;SDS011;51065;48.884;12.598;2022-11-12T16:02:46;19.73;;;9.00;;
64653;SDS011;51065;48.884;12.598;2022-11-12T16:05:23;35.67;;;11.23;;
64653;SDS011;51065;48.884;12.598;2022-11-12T16:07:48;57.30;;;11.98;;
64653;SDS011;51065;48.884;12.598;2022-11-12T16:10:14;31.10;;;11.02;;
64653;SDS011;51065;48.884;12.598;2022-11-12T16:12:42;23.73;;;9.77;;
64653;SDS011;51065;48.884;12.598;2022-11-12T16:15:16;29.85;;;9.90;;
64653;SDS011;51065;48.884;12.598;2022-11-12T16:17:44;42.05;;;11.88;;
64653;SDS011;51065;48.884;12.598;2022-11-12T16:20:14;18.63;;;8.95;;
64653;SDS011;51065;48.884;12.598;2022-11-12T16:22:42;30.45;;;9.15;;
64653;SDS011;51065;48.884;12.598;2022-11-12T16:25:08;29.70;;;9.52;;
64653;SDS011;51065;48.884;12.598;2022-11-12T16:27:35;21.48;;;9.38;;
64653;SDS011;51065;48.884;12.598;2022-11-12T16:30:02;35.45;;;9.32;;
64653;SDS011;51065;48.884;12.598;2022-11-12T16:32:28;19.90;;;7.03;;
64653;SDS011;51065;48.884;12.598;2022-11-12T16:34:53;34.05;;;9.13;;
64653;SDS011;51065;48.884;12.598;2022-11-12T16:37:19;54.08;;;11.25;;
64653;SDS011;51065;48.884;12.598;2022-11-12T16:39:45;26.45;;;9.73;;
64653;SDS011;51065;48.884;12.598;2022-11-12T16:42:10;50.90;;;13.38;;
64653;SDS011;51065;48.884;12.598;2022-11-12T16:44:36;26.17;;;12.18;;
64653;SDS011;51065;48.884;12.598;2022-11-12T16:47:02;27.80;;;11.00;;
64653;SDS011;51065;48.884;12.598;2022-11-12T16:49:29;20.70;;;8.18;;
64653;SDS011;51065;48.884;12.598;2022-11-12T16:51:54;24.23;;;9.32;;
64653;SDS011;51065;48.884;12.598;2022-11-12T16:54:20;20.23;;;8.70;;